Few Clouds Current Weather (METAR) For London Heathrow Airport

All times on the weather descriptions are local

Observed at 10:50 - (21 mins ago)

Few Clouds

18°C

Few Clouds
Clouds: Few Clouds at 1,700ft
Wind: 250° at 09 knots
Visibility: Greater than 10km
QNH: 1025
Dew Point: 13°C
Runway in Use: Landing: Runway , Take-Off: Runway

Sunrise Today: 07:01
Sunset Today: 18:40

Forecast Weather (TAF) For London Heathrow Airport

Issued at 01:00 - (30 days ago)


Runway in Use: Likely Runways 27L/R

Forecast valid until 01:00 on Friday

METAR/TAF RAW METAR / TAF

EGLL 010950Z 25009KT 9999 FEW017 18/13 Q1025 NOSIG

Weather Widget

Put weather from any of our airports on your website with our weather widget.

Find Another Search

Airport Search


Please Wait Please Wait - Loading
Close
Close

Login

Username:

Password:

Remember Me:

Remember me on this computer

Forgotten your password? Get a reset password sent to your registered e-mail address

Close

User Private Message

Subject:

Message: